Time;durP1;ratioP1;P1;durP2;ratioP2;P2;SDS_P1;SDS_P2;PMS_P1;PMS_P2;Temp;Humidity;BMP_temperature;BMP_pressure;BME280_temperature;BME280_humidity;BME280_pressure;Samples;Min_cycle;Max_cycle;Signal;HPM_P1;HPM_P2
2022/06/18 00:01:33;;;;;;;9.67;9.07;;;;;;;24.40;49.00;95344.25;6135235;28;103011;-51
2022/06/18 00:04:36;;;;;;;10.17;9.47;;;;;;;24.40;49.01;95346.16;6128288;28;103089;-51
2022/06/18 00:07:43;;;;;;;9.63;8.97;;;;;;;24.41;48.90;95345.06;6121074;28;102844;-51
2022/06/18 00:10:47;;;;;;;8.47;7.97;;;;;;;24.40;48.57;95344.25;6130821;28;103181;-51
2022/06/18 00:13:51;;;;;;;9.57;8.97;;;;;;;24.41;48.68;95345.84;6136293;28;103196;-51
2022/06/18 00:16:54;;;;;;;9.13;8.53;;;;;;;24.40;48.71;95338.91;6134264;28;103098;-51
2022/06/18 00:19:57;;;;;;;9.10;8.50;;;;;;;24.40;48.66;95346.94;6123359;28;103628;-51
2022/06/18 00:23:02;;;;;;;8.70;8.10;;;;;;;24.38;48.29;95335.78;6136334;28;103333;-52
2022/06/18 00:26:05;;;;;;;8.80;8.20;;;;;;;24.39;48.63;95334.66;6125038;28;103246;-51
2022/06/18 00:29:13;;;;;;;8.20;7.70;;;;;;;24.38;48.43;95345.69;6133744;28;103265;-52
2022/06/18 00:32:16;;;;;;;8.40;7.80;;;;;;;24.42;48.42;95339.38;6126396;28;103226;-52
2022/06/18 00:35:20;;;;;;;8.90;8.30;;;;;;;24.36;48.56;95337.97;6134758;28;103137;-52
2022/06/18 00:38:26;;;;;;;9.07;8.47;;;;;;;24.39;48.41;95332.00;6135964;28;104206;-52
2022/06/18 00:41:29;;;;;;;9.00;8.40;;;;;;;24.31;48.77;95332.75;6130320;28;103384;-54
2022/06/18 00:44:35;;;;;;;9.07;8.27;;;;;;;24.35;48.45;95325.66;6128962;28;103250;-53
2022/06/18 00:47:48;;;;;;;8.93;8.23;;;;;;;24.37;48.59;95320.81;6134645;28;103756;-54
2022/06/18 00:50:57;;;;;;;8.47;7.77;;;;;;;24.32;48.35;95328.19;6133988;28;103068;-52
2022/06/18 00:54:06;;;;;;;8.53;8.03;;;;;;;24.34;48.59;95324.09;6124449;28;103153;-53
2022/06/18 00:57:31;;;;;;;8.17;7.57;;;;;;;24.36;48.42;95326.47;6123690;28;103582;-53
2022/06/18 01:00:39;;;;;;;9.27;8.57;;;;;;;24.35;48.31;95323.00;6128628;28;103009;-52
2022/06/18 01:03:43;;;;;;;8.33;7.67;;;;;;;24.34;48.32;95321.41;6135734;28;104224;-52
2022/06/18 01:06:46;;;;;;;8.77;7.90;;;;;;;24.34;48.21;95321.41;6124340;28;103078;-57
2022/06/18 01:09:52;;;;;;;8.07;7.57;;;;;;;24.34;48.26;95326.78;6133745;28;103349;-57
2022/06/18 01:12:56;;;;;;;7.83;7.33;;;;;;;24.30;48.05;95322.38;6136199;28;102903;-57
2022/06/18 01:16:02;;;;;;;8.73;8.13;;;;;;;24.27;48.30;95318.44;6126990;28;104101;-56
2022/06/18 01:19:10;;;;;;;7.90;7.30;;;;;;;24.29;47.92;95321.59;6125043;28;103723;-57
2022/06/18 01:22:33;;;;;;;8.47;7.77;;;;;;;24.32;48.24;95320.16;6133080;28;102989;-52
2022/06/18 01:25:38;;;;;;;9.40;8.70;;;;;;;24.30;48.04;95327.72;6135464;28;103238;-52
2022/06/18 01:28:41;;;;;;;9.00;8.10;;;;;;;24.29;48.41;95329.59;6121190;28;103136;-51
2022/06/18 01:31:45;;;;;;;8.17;7.57;;;;;;;24.31;48.15;95330.06;6122382;28;103048;-51
2022/06/18 01:34:49;;;;;;;8.23;7.63;;;;;;;24.32;48.21;95331.66;6134776;28;103024;-52
2022/06/18 01:37:52;;;;;;;7.80;7.30;;;;;;;24.30;48.27;95325.81;6135574;28;103300;-52
2022/06/18 01:41:49;;;;;;;8.30;7.70;;;;;;;24.32;48.03;95325.50;6128825;28;103360;-52
2022/06/18 01:44:32;;;;;;;8.00;7.50;;;;;;;24.30;47.84;95317.81;6137260;28;103180;-52
2022/06/18 01:47:40;;;;;;;8.10;7.50;;;;;;;24.31;47.60;95322.06;6137878;28;103229;-52
2022/06/18 01:50:48;;;;;;;8.00;7.40;;;;;;;24.27;47.92;95321.09;6129006;28;104701;-52
2022/06/18 01:53:54;;;;;;;7.33;6.80;;;;;;;24.26;48.04;95321.44;6136806;28;103219;-52
2022/06/18 01:57:03;;;;;;;7.30;6.80;;;;;;;24.30;47.34;95319.69;6138262;28;103082;-52
2022/06/18 02:00:12;;;;;;;7.40;6.80;;;;;;;24.31;47.14;95315.91;6134443;28;104175;-52
2022/06/18 02:03:15;;;;;;;7.77;7.27;;;;;;;24.32;47.40;95318.28;6125091;28;104145;-52
2022/06/18 02:06:19;;;;;;;6.40;6.00;;;;;;;24.28;47.37;95319.22;6138756;28;103112;-51
2022/06/18 02:09:35;;;;;;;7.40;6.73;;;;;;;24.27;47.24;95317.66;6133880;28;103407;-52
2022/06/18 02:12:41;;;;;;;7.10;6.60;;;;;;;24.29;47.25;95313.56;6117513;28;104379;-51
2022/06/18 02:15:47;;;;;;;6.93;6.43;;;;;;;24.28;47.20;95311.97;6134361;28;104329;-52
2022/06/18 02:18:51;;;;;;;7.60;6.93;;;;;;;24.24;47.26;95308.38;6135468;28;103955;-52
2022/06/18 02:21:56;;;;;;;8.30;6.20;;;;;;;24.26;47.18;95300.81;6138096;28;103051;-52
2022/06/18 02:25:00;;;;;;;6.70;6.20;;;;;;;24.29;46.97;95305.53;6127910;28;104452;-52
2022/06/18 02:28:12;;;;;;;6.10;5.80;;;;;;;24.25;47.14;95306.47;6137350;28;102745;-52
2022/06/18 02:31:19;;;;;;;7.23;6.73;;;;;;;24.22;47.00;95309.78;6136345;28;103481;-52
2022/06/18 02:34:27;;;;;;;7.00;6.50;;;;;;;24.22;46.96;95323.94;6137117;28;103075;-52
2022/06/18 02:37:32;;;;;;;6.10;5.70;;;;;;;24.17;47.23;95321.41;6127919;28;103216;-52
2022/06/18 02:40:35;;;;;;;6.00;5.70;;;;;;;24.13;47.30;95326.59;6135558;28;103203;-52
2022/06/18 02:43:42;;;;;;;5.90;5.50;;;;;;;24.12;47.19;95319.66;6138168;28;103913;-52
2022/06/18 02:46:45;;;;;;;6.70;6.20;;;;;;;24.10;46.94;95319.19;6128578;28;103334;-51
2022/06/18 02:49:53;;;;;;;6.40;5.90;;;;;;;24.13;47.29;95313.22;6133659;28;103361;-52
2022/06/18 02:53:01;;;;;;;6.83;6.10;;;;;;;24.11;47.29;95310.06;6136958;28;103317;-52
2022/06/18 02:56:06;;;;;;;11.87;6.40;;;;;;;24.09;47.34;95312.28;6118170;28;104126;-52
2022/06/18 02:59:11;;;;;;;6.10;5.70;;;;;;;24.09;46.99;95317.63;6120768;28;104512;-52
2022/06/18 03:02:14;;;;;;;6.47;5.97;;;;;;;24.07;47.02;95321.72;6136561;28;103276;-52
2022/06/18 03:05:20;;;;;;;6.73;6.13;;;;;;;24.11;47.16;95319.97;6137944;28;104130;-52
2022/06/18 03:08:26;;;;;;;6.07;5.67;;;;;;;24.06;47.12;95322.81;6136529;28;102914;-52
2022/06/18 03:14:52;;;;;;;6.60;6.10;;;;;;;24.07;46.90;95319.81;6136258;28;103219;-51
2022/06/18 03:17:56;;;;;;;6.63;6.13;;;;;;;24.09;47.14;95316.84;6125164;28;103271;-52
2022/06/18 03:21:06;;;;;;;6.80;6.20;;;;;;;24.05;46.95;95318.56;6128202;28;104254;-52
2022/06/18 03:24:10;;;;;;;7.17;6.50;;;;;;;24.05;46.87;95313.22;6134242;28;103062;-59
2022/06/18 03:27:15;;;;;;;8.00;6.27;;;;;;;23.89;47.08;95313.63;6134701;28;103010;-59
2022/06/18 03:30:20;;;;;;;7.07;6.47;;;;;;;23.72;47.28;95313.56;6129340;28;103654;-59
2022/06/18 03:33:23;;;;;;;7.83;7.13;;;;;;;23.63;47.62;95326.09;6127222;28;103056;-59
2022/06/18 03:36:26;;;;;;;6.87;6.37;;;;;;;23.61;47.21;95325.59;6127234;28;103216;-59
2022/06/18 03:39:30;;;;;;;6.80;6.30;;;;;;;23.76;47.15;95330.53;6132474;28;103036;-59
2022/06/18 03:42:33;;;;;;;6.97;6.37;;;;;;;23.87;47.32;95334.53;6133546;28;103290;-59
2022/06/18 03:45:41;;;;;;;6.80;6.37;;;;;;;23.93;47.22;95337.84;6124595;28;103563;-59
2022/06/18 03:48:48;;;;;;;6.67;6.07;;;;;;;24.00;47.22;95343.53;6132349;28;104096;-58
2022/06/18 03:51:51;;;;;;;7.07;6.30;;;;;;;24.05;47.04;95347.97;6136882;28;103379;-59
2022/06/18 03:54:54;;;;;;;7.30;6.70;;;;;;;24.07;46.74;95332.41;6126942;28;103387;-59
2022/06/18 03:57:57;;;;;;;7.63;6.63;;;;;;;24.10;46.92;95332.56;6134830;28;102955;-58
2022/06/18 04:01:01;;;;;;;7.30;6.60;;;;;;;24.12;46.85;95327.69;6135314;28;103069;-55
2022/06/18 04:04:05;;;;;;;7.70;6.33;;;;;;;24.20;47.25;95334.16;6135313;28;103196;-58
2022/06/18 04:07:15;;;;;;;7.37;6.60;;;;;;;24.24;46.71;95324.41;6125528;28;104778;-56
2022/06/18 04:10:21;;;;;;;7.30;6.70;;;;;;;24.28;47.74;95329.91;6123678;28;103825;-55
2022/06/18 04:13:24;;;;;;;14.00;7.27;;;;;;;24.33;47.97;95343.13;6119475;28;104187;-55
2022/06/18 04:16:28;;;;;;;7.60;6.90;;;;;;;24.33;48.15;95341.25;6122546;28;103898;-56
2022/06/18 04:19:32;;;;;;;8.97;7.50;;;;;;;24.35;47.97;95340.94;6115050;28;103349;-55
2022/06/18 04:22:38;;;;;;;8.33;6.60;;;;;;;24.36;47.97;95345.19;6127472;28;103056;-54
2022/06/18 04:25:41;;;;;;;8.00;7.30;;;;;;;24.39;47.70;95342.69;6127591;28;103392;-56
2022/06/18 04:28:44;;;;;;;7.40;6.70;;;;;;;24.39;47.41;95341.91;6121605;28;103091;-55
2022/06/18 04:31:49;;;;;;;6.60;6.03;;;;;;;24.38;46.92;95341.13;6117986;28;104013;-54
2022/06/18 04:34:52;;;;;;;6.50;6.00;;;;;;;24.42;47.34;95338.59;6127625;28;103055;-55
2022/06/18 04:37:55;;;;;;;6.43;5.93;;;;;;;24.45;47.11;95351.34;5224576;28;10000981;-55
2022/06/18 04:40:58;;;;;;;14.60;6.03;;;;;;;24.43;46.70;95354.34;6100428;28;104688;-55
2022/06/18 04:44:03;;;;;;;6.40;6.00;;;;;;;24.37;46.73;95339.53;6112784;28;104856;-56
2022/06/18 04:47:09;;;;;;;11.63;10.00;;;;;;;24.35;46.25;95344.41;6112594;28;103962;-56
2022/06/18 04:50:19;;;;;;;21.00;14.53;;;;;;;24.30;46.27;95344.56;6111479;28;103764;-56
2022/06/18 04:53:22;;;;;;;21.93;14.53;;;;;;;24.31;45.94;95348.00;6099896;28;104005;-56
2022/06/18 04:56:26;;;;;;;16.07;12.90;;;;;;;24.30;46.06;95346.44;6109934;28;104068;-57
2022/06/18 04:59:29;;;;;;;12.50;10.70;;;;;;;24.28;45.76;95344.06;6109098;28;103940;-56
2022/06/18 05:02:35;;;;;;;9.67;8.67;;;;;;;24.29;45.67;95345.66;6105060;28;104100;-56
2022/06/18 05:05:38;;;;;;;9.40;8.50;;;;;;;24.22;45.73;95345.34;6105259;28;103714;-56
2022/06/18 05:08:41;;;;;;;8.00;7.20;;;;;;;24.26;45.57;95346.28;6112691;28;103081;-56
2022/06/18 05:11:44;;;;;;;7.83;7.23;;;;;;;24.23;45.60;95341.56;6111002;28;103848;-56
2022/06/18 05:14:47;;;;;;;8.93;7.43;;;;;;;24.23;45.48;95344.22;6101243;28;103985;-56
2022/06/18 05:17:52;;;;;;;8.50;6.60;;;;;;;24.26;45.47;95342.81;6111892;28;103818;-56
2022/06/18 05:20:55;;;;;;;6.87;6.20;;;;;;;24.25;45.52;95355.41;6112322;28;105182;-56
2022/06/18 05:23:58;;;;;;;5.97;5.57;;;;;;;24.22;45.85;95345.34;6111926;28;103876;-56
2022/06/18 05:27:01;;;;;;;5.87;5.47;;;;;;;24.25;45.47;95355.41;6101556;28;104707;-56
2022/06/18 05:30:06;;;;;;;6.80;5.90;;;;;;;24.25;44.84;95349.28;6110652;28;103631;-59
2022/06/18 05:33:10;;;;;;;6.20;5.70;;;;;;;24.22;45.55;95353.34;6111185;28;103690;-56
2022/06/18 05:36:19;;;;;;;6.40;5.90;;;;;;;24.27;45.43;95355.88;6111853;28;104932;-56
2022/06/18 05:39:23;;;;;;;6.03;5.60;;;;;;;24.33;45.24;95353.84;6105047;28;103990;-56
2022/06/18 05:42:26;;;;;;;5.80;5.40;;;;;;;24.35;45.24;95355.09;6111318;28;103627;-56
2022/06/18 05:45:29;;;;;;;6.10;5.70;;;;;;;24.38;44.78;95362.53;6112284;28;105164;-56
2022/06/18 05:48:35;;;;;;;5.83;5.40;;;;;;;24.40;45.06;95365.66;6101957;28;103882;-56
2022/06/18 05:51:38;;;;;;;6.17;5.67;;;;;;;24.39;45.02;95366.75;6111638;28;103684;-56
2022/06/18 05:54:41;;;;;;;5.30;4.73;;;;;;;24.41;44.99;95369.91;6111795;28;103801;-56
2022/06/18 05:57:46;;;;;;;5.73;5.33;;;;;;;24.39;44.90;95371.31;6111243;28;103681;-56
2022/06/18 06:00:49;;;;;;;5.93;5.53;;;;;;;24.43;44.81;95370.38;6100530;28;103761;-54
2022/06/18 06:03:54;;;;;;;5.33;4.93;;;;;;;24.49;45.00;95366.44;6111191;28;103958;-56
2022/06/18 06:06:57;;;;;;;5.40;5.00;;;;;;;24.45;44.48;95367.41;6111745;28;103977;-54
2022/06/18 06:13:22;;;;;;;7.13;5.23;;;;;;;24.45;44.45;95373.53;6106345;28;104388;-57
2022/06/18 06:16:26;;;;;;;5.43;5.03;;;;;;;24.50;44.61;95375.25;6090472;28;103761;-56
2022/06/18 06:19:31;;;;;;;6.43;5.43;;;;;;;24.49;44.32;95369.13;6098872;28;103678;-56
2022/06/18 06:22:35;;;;;;;5.70;5.03;;;;;;;24.56;44.25;95368.69;6102023;28;104694;-55
2022/06/18 06:25:40;;;;;;;5.70;5.10;;;;;;;24.64;44.26;95375.91;6115990;28;103879;-54
2022/06/18 06:28:44;;;;;;;7.17;4.87;;;;;;;24.75;44.17;95371.88;6118321;28;104060;-55
2022/06/18 06:31:47;;;;;;;6.03;5.03;;;;;;;24.80;44.26;95368.25;6121132;28;103704;-55
2022/06/18 06:34:52;;;;;;;5.17;4.77;;;;;;;24.85;44.52;95376.09;6103973;28;104897;-54
2022/06/18 06:37:55;;;;;;;5.63;5.13;;;;;;;24.87;44.15;95371.25;6115340;28;104371;-55
2022/06/18 06:40:58;;;;;;;6.80;4.97;;;;;;;24.88;44.30;95364.78;6107381;28;105198;-56
2022/06/18 06:44:01;;;;;;;5.47;5.00;;;;;;;24.92;44.25;95372.97;6094902;28;103720;-55
2022/06/18 06:47:06;;;;;;;5.90;5.30;;;;;;;24.96;44.31;95371.22;6078989;28;103919;-57
2022/06/18 06:50:13;;;;;;;6.40;5.00;;;;;;;24.97;43.70;95376.25;6091810;28;103618;-56
2022/06/18 06:53:16;;;;;;;5.07;4.57;;;;;;;24.99;43.90;95374.06;6091482;28;103733;-56
2022/06/18 06:59:42;;;;;;;5.40;5.00;;;;;;;25.05;44.15;95370.13;6091064;28;103756;-57
2022/06/18 07:02:45;;;;;;;4.70;4.30;;;;;;;25.05;43.65;95372.81;6090208;28;106430;-56
2022/06/18 07:05:50;;;;;;;5.10;4.60;;;;;;;25.11;43.10;95367.28;6091411;28;103963;-55
2022/06/18 07:08:54;;;;;;;5.53;5.03;;;;;;;25.19;43.24;95369.16;6092015;28;103798;-56
2022/06/18 07:11:57;;;;;;;5.57;5.17;;;;;;;25.21;43.09;95372.31;6133250;28;103638;-58
2022/06/18 07:15:00;;;;;;;5.50;5.00;;;;;;;25.23;43.22;95370.13;6139154;28;104312;-56
2022/06/18 07:18:04;;;;;;;5.20;4.70;;;;;;;25.24;42.75;95374.38;6138409;28;104165;-56
2022/06/18 07:21:13;;;;;;;5.00;4.60;;;;;;;25.26;42.62;95372.16;6129228;28;103750;-56
2022/06/18 07:24:16;;;;;;;4.70;4.30;;;;;;;25.30;42.49;95357.00;6138869;28;103886;-55
2022/06/18 07:27:19;;;;;;;4.63;4.33;;;;;;;25.31;42.23;95363.94;6122895;28;103223;-55
2022/06/18 07:30:22;;;;;;;5.20;4.80;;;;;;;25.31;41.98;95369.28;6102188;28;104755;-55
2022/06/18 07:33:28;;;;;;;8.40;7.20;;;;;;;25.34;42.93;95363.28;6098409;28;103673;-56
2022/06/18 07:36:33;;;;;;;9.77;9.07;;;;;;;25.37;42.51;95366.19;6106286;28;104011;-55
2022/06/18 07:39:37;;;;;;;10.03;9.33;;;;;;;25.40;42.40;95370.09;6108023;28;105140;-55
2022/06/18 07:42:40;;;;;;;10.83;9.77;;;;;;;25.40;42.21;95370.09;6094923;28;103890;-54
2022/06/18 07:45:44;;;;;;;10.47;9.67;;;;;;;25.48;42.12;95355.88;6109840;28;103623;-56
2022/06/18 07:48:48;;;;;;;9.80;9.00;;;;;;;25.47;41.85;95364.25;6107676;28;103844;-58
2022/06/18 07:51:52;;;;;;;9.80;9.10;;;;;;;25.49;42.01;95356.66;6104574;28;105231;-56
2022/06/18 07:54:55;;;;;;;9.80;9.20;;;;;;;25.49;41.78;95360.13;6095941;28;103796;-56
2022/06/18 07:57:59;;;;;;;10.03;9.30;;;;;;;25.52;41.60;95354.13;6106928;28;103695;-57
2022/06/18 08:01:02;;;;;;;9.30;8.70;;;;;;;25.47;41.70;95354.31;6100844;28;103729;-55
2022/06/18 08:04:06;;;;;;;11.17;10.27;;;;;;;25.46;41.45;95351.97;6098138;28;105012;-54
2022/06/18 08:07:11;;;;;;;10.67;9.97;;;;;;;25.49;42.01;95352.09;6107666;28;103963;-55
2022/06/18 08:10:14;;;;;;;13.27;10.17;;;;;;;25.45;41.79;95356.53;6113011;28;103207;-58
2022/06/18 08:13:17;;;;;;;12.60;8.80;;;;;;;25.53;41.49;95357.59;6103890;28;104013;-56
2022/06/18 08:16:24;;;;;;;9.83;8.83;;;;;;;25.58;41.42;95360.13;6101153;28;104725;-56
2022/06/18 08:19:27;;;;;;;9.70;8.83;;;;;;;25.56;41.44;95357.78;6115206;28;106097;-57
2022/06/18 08:22:34;;;;;;;10.23;9.20;;;;;;;25.52;41.21;95356.81;6113634;28;104772;-56
2022/06/18 08:25:40;;;;;;;9.70;8.73;;;;;;;25.47;41.67;95362.34;6115409;28;103691;-57
2022/06/18 08:28:50;;;;;;;9.00;8.13;;;;;;;25.47;41.41;95357.00;6112205;28;104530;-56
2022/06/18 08:31:56;;;;;;;9.23;8.47;;;;;;;25.52;41.37;95356.81;6111251;28;103900;-56
2022/06/18 08:34:59;;;;;;;8.47;7.63;;;;;;;25.49;41.32;95367.41;6103651;28;103794;-56
2022/06/18 08:38:05;;;;;;;8.30;7.70;;;;;;;25.49;41.28;95362.03;6102278;28;104439;-56
2022/06/18 08:41:26;;;;;;;8.90;8.20;;;;;;;25.49;41.25;95357.47;6095942;28;103662;-56
2022/06/18 08:45:00;;;;;;;8.83;8.13;;;;;;;25.44;41.58;95357.63;6110452;28;104993;-55
2022/06/18 08:48:19;;;;;;;7.77;7.27;;;;;;;25.42;42.01;95354.50;6107497;28;103700;-56
2022/06/18 08:51:33;;;;;;;8.07;7.50;;;;;;;25.49;41.38;95356.66;6101196;28;104437;-56
2022/06/18 08:54:46;;;;;;;8.53;7.93;;;;;;;25.44;41.74;95352.28;6108491;28;105314;-57
2022/06/18 08:58:01;;;;;;;7.83;7.33;;;;;;;25.40;41.52;95358.59;6109620;28;103933;-57
2022/06/18 09:01:09;;;;;;;8.00;7.50;;;;;;;25.38;41.71;95350.88;6100038;28;104679;-56
2022/06/18 09:04:23;;;;;;;7.73;7.23;;;;;;;25.38;41.57;95348.22;6099600;28;103700;-57
2022/06/18 09:07:54;;;;;;;7.93;7.13;;;;;;;25.40;41.55;95354.03;6106176;28;104629;-57
2022/06/18 09:11:32;;;;;;;8.77;8.17;;;;;;;25.43;41.62;95349.94;6109336;28;104096;-55
2022/06/18 09:14:41;;;;;;;7.87;7.23;;;;;;;25.43;41.70;95347.25;6097022;28;103973;-55
2022/06/18 09:17:48;;;;;;;8.50;7.90;;;;;;;25.44;41.83;95336.19;6106205;28;103533;-54
2022/06/18 09:20:55;;;;;;;6.73;6.30;;;;;;;25.46;42.09;95342.03;6101221;28;104874;-54
2022/06/18 09:24:02;;;;;;;7.57;7.03;;;;;;;25.36;41.96;95359.22;6101393;28;104041;-57
2022/06/18 09:27:12;;;;;;;7.00;6.50;;;;;;;25.32;42.56;95352.13;6106523;28;103688;-55
2022/06/18 09:30:20;;;;;;;6.70;6.13;;;;;;;25.32;42.17;95349.44;6101153;28;103816;-56
2022/06/18 09:33:29;;;;;;;5.77;5.37;;;;;;;25.33;42.16;95348.31;6108363;28;103862;-55
2022/06/18 09:36:37;;;;;;;11.57;10.57;;;;;;;25.32;42.74;95347.53;6100624;28;104958;-55
2022/06/18 09:39:43;;;;;;;9.97;9.17;;;;;;;25.33;43.40;95359.03;6108568;28;104863;-55
2022/06/18 09:42:52;;;;;;;8.20;7.53;;;;;;;25.32;43.80;95358.25;6104525;28;104946;-55
2022/06/18 09:45:59;;;;;;;8.27;7.67;;;;;;;25.30;44.27;95349.75;6104801;28;104913;-55
2022/06/18 09:49:02;;;;;;;7.13;6.60;;;;;;;25.28;44.89;95343.94;6081883;28;104869;-56
2022/06/18 09:52:17;;;;;;;7.27;6.60;;;;;;;25.26;45.30;95346.16;6106645;28;104836;-55
2022/06/18 09:55:26;;;;;;;8.03;6.40;;;;;;;25.25;45.46;95346.47;6103510;28;103691;-55
2022/06/18 09:58:34;;;;;;;7.13;6.50;;;;;;;25.24;45.59;95355.63;6099812;28;103791;-55
2022/06/18 10:01:41;;;;;;;7.30;6.60;;;;;;;25.25;45.50;95347.25;6100575;28;103963;-57
2022/06/18 10:08:10;;;;;;;7.60;6.90;;;;;;;25.28;45.35;95343.16;6132012;28;103788;-55
2022/06/18 10:11:16;;;;;;;6.93;6.43;;;;;;;25.28;45.62;95340.47;6109587;28;103967;-55
2022/06/18 10:14:23;;;;;;;7.53;6.93;;;;;;;25.28;45.30;95343.16;6106708;28;104649;-55
2022/06/18 10:17:43;;;;;;;9.80;8.67;;;;;;;25.28;45.29;95346.63;6108714;28;104928;-55
2022/06/18 10:20:56;;;;;;;12.37;10.33;;;;;;;25.28;45.88;95340.47;6102613;28;103765;-56
2022/06/18 10:24:07;;;;;;;15.60;10.90;;;;;;;25.29;46.13;95342.81;6102131;28;104004;-56
2022/06/18 10:27:15;;;;;;;17.23;11.47;;;;;;;25.29;46.13;95342.81;6106123;28;103721;-56
2022/06/18 10:30:25;;;;;;;15.27;10.03;;;;;;;25.30;46.50;95344.41;6113072;28;103792;-56
2022/06/18 10:33:41;;;;;;;11.40;9.00;;;;;;;25.28;46.56;95325.19;6097071;28;103767;-56
2022/06/18 10:36:51;;;;;;;7.63;6.83;;;;;;;25.26;46.40;95334.66;6107498;28;103686;-56
2022/06/18 10:40:03;;;;;;;8.87;8.07;;;;;;;25.25;46.09;95339.22;6108042;28;103191;-56
2022/06/18 10:43:21;;;;;;;8.27;7.37;;;;;;;25.26;46.56;95345.38;6103103;28;104429;-56
2022/06/18 10:46:26;;;;;;;9.83;7.20;;;;;;;25.22;46.50;95339.88;6098533;28;106019;-55
2022/06/18 10:49:31;;;;;;;8.93;7.40;;;;;;;25.20;46.13;95333.22;6108244;28;104511;-56
2022/06/18 10:52:34;;;;;;;8.17;6.60;;;;;;;25.23;46.68;95335.28;6101262;28;103968;-56
2022/06/18 10:55:37;;;;;;;7.23;6.63;;;;;;;25.23;46.67;95333.41;6117172;28;105138;-51
2022/06/18 10:58:48;;;;;;;7.17;6.67;;;;;;;25.27;46.33;95328.97;6122169;28;103583;-51
2022/06/18 11:01:53;;;;;;;7.27;6.70;;;;;;;25.30;46.51;95325.66;6098794;28;103993;-51
2022/06/18 11:04:59;;;;;;;10.67;7.40;;;;;;;25.31;46.96;95323.75;6107312;28;104873;-52
2022/06/18 11:08:20;;;;;;;7.50;7.00;;;;;;;25.31;47.20;95337.16;6115069;28;104618;-52
2022/06/18 11:11:29;;;;;;;7.23;6.67;;;;;;;25.31;46.84;95340.63;6101694;28;104545;-52
2022/06/18 11:14:39;;;;;;;6.47;5.97;;;;;;;25.28;47.09;95325.19;6104882;28;103791;-53
2022/06/18 11:17:45;;;;;;;7.27;6.57;;;;;;;25.29;46.77;95332.13;6103362;28;103919;-53
2022/06/18 11:20:59;;;;;;;7.00;6.50;;;;;;;25.29;46.78;95342.81;6095013;28;103253;-54
2022/06/18 11:24:06;;;;;;;6.93;6.50;;;;;;;25.29;46.63;95342.03;6107443;28;103894;-53
2022/06/18 11:27:15;;;;;;;7.70;7.00;;;;;;;25.27;46.90;95347.72;6127311;28;103211;-53
2022/06/18 11:30:25;;;;;;;7.20;6.60;;;;;;;25.26;47.01;95343.47;6096014;28;104384;-52
2022/06/18 11:33:34;;;;;;;7.73;7.13;;;;;;;25.27;46.97;95349.63;6104723;28;104088;-53
2022/06/18 11:36:46;;;;;;;7.70;7.10;;;;;;;25.28;46.84;95361.91;6106693;28;103745;-52
2022/06/18 11:39:55;;;;;;;7.50;6.83;;;;;;;25.27;47.09;95352.28;6106734;28;103943;-53
2022/06/18 11:43:03;;;;;;;7.47;6.97;;;;;;;25.28;46.93;95353.88;6092480;28;105376;-52
2022/06/18 11:46:10;;;;;;;7.50;6.93;;;;;;;25.28;46.74;95353.88;6119391;28;104339;-53
2022/06/18 11:49:18;;;;;;;7.40;6.70;;;;;;;25.27;47.11;95363.00;6131223;28;103520;-53
2022/06/18 11:52:28;;;;;;;7.53;6.90;;;;;;;25.26;46.75;95356.06;6100883;28;103857;-53
2022/06/18 11:55:34;;;;;;;8.27;7.47;;;;;;;25.23;47.21;95357.50;6107123;28;103866;-52
2022/06/18 11:58:43;;;;;;;8.10;7.30;;;;;;;25.26;46.89;95350.72;6106407;28;103998;-52
2022/06/18 12:01:52;;;;;;;7.87;7.17;;;;;;;25.25;47.16;95349.16;6099558;28;103758;-51
2022/06/18 12:05:03;;;;;;;7.40;6.80;;;;;;;25.28;47.04;95349.28;6095418;28;104008;-51
2022/06/18 12:08:08;;;;;;;7.53;7.03;;;;;;;25.29;47.05;95347.41;6106329;28;104937;-51
2022/06/18 12:11:40;;;;;;;7.17;6.57;;;;;;;25.29;47.24;95342.03;6101400;28;104073;-51
2022/06/18 12:14:50;;;;;;;8.03;7.30;;;;;;;25.29;47.26;95350.06;6078889;28;103653;-51
2022/06/18 12:18:00;;;;;;;7.83;6.97;;;;;;;25.28;46.76;95353.88;6091600;28;104217;-52
2022/06/18 12:21:15;;;;;;;6.90;6.40;;;;;;;25.25;46.91;95341.91;6100041;28;104245;-53
2022/06/18 12:24:29;;;;;;;7.50;7.00;;;;;;;25.25;47.13;95341.91;6106625;28;103659;-53
2022/06/18 12:27:43;;;;;;;7.70;7.10;;;;;;;25.26;46.51;95342.69;6109893;28;105014;-52
2022/06/18 12:30:52;;;;;;;7.37;6.77;;;;;;;25.27;46.34;95338.91;6102761;28;103755;-53
2022/06/18 12:34:05;;;;;;;6.80;6.23;;;;;;;25.27;46.51;95345.03;6103948;28;103622;-52
2022/06/18 12:37:22;;;;;;;6.70;6.30;;;;;;;25.28;46.73;95340.47;6104339;28;103745;-51
2022/06/18 12:40:34;;;;;;;6.73;6.33;;;;;;;25.28;46.62;95335.13;6099225;28;103601;-51
2022/06/18 12:43:48;;;;;;;7.17;6.53;;;;;;;25.28;46.50;95333.22;6104152;28;103508;-52
2022/06/18 12:47:01;;;;;;;7.07;6.63;;;;;;;25.25;46.19;95328.50;6106390;28;104875;-53
2022/06/18 12:50:18;;;;;;;7.67;6.90;;;;;;;25.26;45.65;95337.31;6115651;28;103677;-53
2022/06/18 12:53:44;;;;;;;6.70;6.20;;;;;;;25.22;45.19;95336.41;6102937;28;104443;-54
2022/06/18 12:56:53;;;;;;;6.63;6.00;;;;;;;25.21;45.32;95322.22;6106487;28;103581;-54
2022/06/18 13:00:07;;;;;;;6.37;5.97;;;;;;;25.22;44.80;95325.69;6102994;28;104926;-55
2022/06/18 13:03:48;;;;;;;6.20;5.70;;;;;;;25.23;45.00;95319.22;6094966;28;104377;-54
2022/06/18 13:07:00;;;;;;;6.67;6.17;;;;;;;25.23;44.39;95322.69;6107345;28;103947;-55
2022/06/18 13:10:12;;;;;;;5.50;5.20;;;;;;;25.24;44.05;95324.25;6107228;28;102887;-55
2022/06/18 13:13:28;;;;;;;5.60;5.20;;;;;;;25.27;45.01;95328.19;6097228;28;103893;-52
2022/06/18 13:16:40;;;;;;;5.83;5.43;;;;;;;25.28;44.71;95329.75;6106800;28;103825;-53
2022/06/18 13:19:49;;;;;;;5.03;4.70;;;;;;;25.25;43.62;95317.00;6105812;28;103553;-56
2022/06/18 13:22:52;;;;;;;5.40;5.00;;;;;;;25.25;43.62;95333.06;6095629;28;103826;-55
2022/06/18 13:29:25;;;;;;;5.03;4.67;;;;;;;25.28;44.46;95329.75;6111819;28;103954;-55
2022/06/18 13:32:31;;;;;;;5.33;4.93;;;;;;;25.28;44.98;95327.06;6099787;28;104802;-55
2022/06/18 13:35:42;;;;;;;5.43;5.00;;;;;;;25.26;45.23;95316.69;6099003;28;103893;-58
2022/06/18 13:38:52;;;;;;;5.47;5.07;;;;;;;25.28;45.38;95308.31;6110470;28;103708;-58
2022/06/18 13:42:05;;;;;;;5.20;4.80;;;;;;;25.27;45.03;95322.81;6109329;28;104541;-58
2022/06/18 13:45:49;;;;;;;5.10;4.80;;;;;;;25.30;45.39;95322.19;6109683;28;104210;-56
2022/06/18 13:49:03;;;;;;;5.97;5.50;;;;;;;25.29;45.59;95320.59;5984829;29;104163;-57
2022/06/18 13:52:07;;;;;;;5.07;4.77;;;;;;;25.29;45.00;95320.59;5993390;28;104738;-56
2022/06/18 13:55:13;;;;;;;5.50;5.20;;;;;;;25.29;45.69;95315.25;6110312;28;103901;-52
2022/06/18 13:58:26;;;;;;;5.43;5.13;;;;;;;25.31;45.13;95318.41;6122748;28;105173;-54
2022/06/18 14:01:32;;;;;;;5.60;5.20;;;;;;;25.31;45.13;95308.47;6118040;28;103753;-54
2022/06/18 14:04:42;;;;;;;5.30;4.90;;;;;;;25.31;45.68;95313.03;6107539;28;103690;-55
2022/06/18 14:07:48;;;;;;;5.57;5.17;;;;;;;25.28;44.59;95308.31;6109954;28;104038;-55
2022/06/18 14:10:54;;;;;;;5.50;4.20;;;;;;;25.27;44.06;95310.22;6102589;28;105169;-55
2022/06/18 14:14:01;;;;;;;4.87;4.57;;;;;;;25.31;45.84;95311.16;6124317;28;104040;-55
2022/06/18 14:17:09;;;;;;;5.37;4.50;;;;;;;25.32;44.74;95302.00;6111683;28;103464;-54
2022/06/18 14:20:22;;;;;;;4.70;4.40;;;;;;;25.35;46.05;95314.00;6111111;28;104349;-53
2022/06/18 14:23:28;;;;;;;5.03;4.70;;;;;;;25.33;46.82;95319.66;6103145;28;104386;-51
2022/06/18 14:26:41;;;;;;;5.13;4.73;;;;;;;25.37;47.08;95325.19;6107707;28;103839;-50
2022/06/18 14:29:46;;;;;;;5.87;5.47;;;;;;;25.37;47.28;95325.19;6109093;28;103672;-50
2022/06/18 14:32:59;;;;;;;5.70;5.30;;;;;;;25.37;47.18;95327.84;6084160;28;104003;-53
2022/06/18 14:36:13;;;;;;;5.03;4.73;;;;;;;25.37;48.20;95328.66;6093240;28;103956;-52
2022/06/18 14:39:24;;;;;;;5.23;4.83;;;;;;;25.33;47.59;95335.72;6108409;28;103907;-52
2022/06/18 14:42:45;;;;;;;5.73;5.27;;;;;;;25.30;47.21;95336.38;6096439;28;104057;-59
2022/06/18 14:46:01;;;;;;;6.10;5.50;;;;;;;25.30;47.27;95341.72;6099300;28;103648;-58
2022/06/18 14:49:30;;;;;;;5.10;4.80;;;;;;;25.26;46.54;95331.97;6105727;28;103823;-58